Time;durP1;ratioP1;P1;durP2;ratioP2;P2;SDS_P1;SDS_P2;PMS_P1;PMS_P2;Temp;Humidity;BMP_temperature;BMP_pressure;BME280_temperature;BME280_humidity;BME280_pressure;Samples;Min_cycle;Max_cycle;Signal;HPM_P1;HPM_P2
2020/12/04 00:00:06;;;;;;;14.57;8.57;;;17.30;53.10;;;;;;5077953;28;20234;-89
2020/12/04 00:02:44;;;;;;;15.95;9.25;;;17.30;53.30;;;;;;5047383;28;20181;-89
2020/12/04 00:05:36;;;;;;;18.25;9.10;;;17.30;53.20;;;;;;5046013;28;20213;-89
2020/12/04 00:08:37;;;;;;;12.52;8.25;;;17.30;53.10;;;;;;5049139;28;20233;-89
2020/12/04 00:11:37;;;;;;;16.67;9.40;;;17.30;53.70;;;;;;5065327;28;20311;-89
2020/12/04 00:14:16;;;;;;;15.00;8.48;;;17.30;53.30;;;;;;5075072;28;20248;-89
2020/12/04 00:17:35;;;;;;;15.27;9.30;;;17.30;53.90;;;;;;5046653;28;20189;-88
2020/12/04 00:20:13;;;;;;;16.15;9.00;;;17.30;53.10;;;;;;5077515;28;20181;-91
2020/12/04 00:22:54;;;;;;;14.95;9.45;;;17.30;53.20;;;;;;5047623;28;20257;-89
2020/12/04 00:25:35;;;;;;;15.00;9.50;;;17.20;53.40;;;;;;5061801;28;20200;-90
2020/12/04 00:28:19;;;;;;;15.85;9.30;;;17.20;53.30;;;;;;5048740;28;20177;-89
2020/12/04 00:34:15;;;;;;;15.00;9.20;;;17.20;53.10;;;;;;5022642;28;20589;-90
2020/12/04 00:36:52;;;;;;;13.50;8.77;;;17.30;53.10;;;;;;5044779;28;20182;-90
2020/12/04 00:42:35;;;;;;;15.02;9.57;;;17.30;53.00;;;;;;5066075;28;20200;-89
2020/12/04 00:45:23;;;;;;;;;;;;;;;;;;;;;
2020/12/04 00:51:40;;;;;;;15.27;8.32;;;17.20;53.30;;;;;;5036218;28;20217;-89
2020/12/04 00:54:31;;;;;;;15.88;9.13;;;17.20;53.20;;;;;;5007790;28;20167;-89
2020/12/04 00:57:41;;;;;;;16.45;9.27;;;17.20;53.10;;;;;;5020565;28;20182;-89
2020/12/04 01:00:45;;;;;;;14.82;9.38;;;17.20;53.10;;;;;;4954099;28;20179;-90
2020/12/04 01:03:34;;;;;;;14.75;9.27;;;17.20;53.20;;;;;;4987235;28;20261;-89
2020/12/04 01:06:30;;;;;;;16.38;9.48;;;17.20;53.20;;;;;;4990121;28;20191;-89
2020/12/04 01:09:00;;;;;;;14.25;9.13;;;17.20;53.30;;;;;;5006643;28;20183;-89
2020/12/04 01:11:44;;;;;;;13.48;8.98;;;17.20;53.30;;;;;;4972123;28;20207;-89
2020/12/04 01:14:34;;;;;;;15.90;9.45;;;17.20;53.20;;;;;;4990205;28;20183;-89
2020/12/04 01:17:16;;;;;;;15.07;8.90;;;17.20;53.30;;;;;;4975591;28;20266;-89
2020/12/04 01:20:07;;;;;;;15.45;9.38;;;17.20;53.40;;;;;;4989192;28;20183;-90
2020/12/04 01:23:00;;;;;;;16.90;9.07;;;17.20;53.40;;;;;;5003777;28;20237;-89
2020/12/04 01:29:44;;;;;;;13.57;8.77;;;17.20;53.50;;;;;;4982090;28;20265;-89
2020/12/04 01:32:34;;;;;;;14.85;9.60;;;17.10;53.40;;;;;;4971096;28;20177;-89
2020/12/04 01:35:19;;;;;;;;;;;;;;;;;;;;;
2020/12/04 01:38:07;;;;;;;15.82;8.90;;;17.20;53.40;;;;;;4985931;28;20267;-89
2020/12/04 01:40:59;;;;;;;13.90;8.98;;;17.30;53.30;;;;;;4969217;28;20184;-89
2020/12/04 01:43:53;;;;;;;13.73;8.73;;;17.20;53.20;;;;;;4970417;28;20279;-89
2020/12/04 01:46:56;;;;;;;;;;;;;;;;;;;;;
2020/12/04 01:50:09;;;;;;;;;;;;;;;;;;;;;
2020/12/04 01:53:11;;;;;;;;;;;;;;;;;;;;;
2020/12/04 01:56:11;;;;;;;14.77;8.75;;;17.20;53.30;;;;;;4987113;28;20626;-88
2020/12/04 02:02:30;;;;;;;;;;;;;;;;;;;;;
2020/12/04 02:09:07;;;;;;;17.63;9.15;;;17.10;53.70;;;;;;4923208;29;20179;-89
2020/12/04 02:11:49;;;;;;;15.32;9.13;;;17.10;53.60;;;;;;4923250;29;20680;-88
2020/12/04 02:14:56;;;;;;;13.20;8.32;;;17.10;53.40;;;;;;4891142;29;20561;-90
2020/12/04 02:17:44;;;;;;;;;;;;;;;;;;;;;
2020/12/04 02:20:25;;;;;;;14.93;8.82;;;17.10;53.70;;;;;;4921684;29;20270;-89
2020/12/04 02:23:32;;;;;;;14.85;9.48;;;17.10;53.90;;;;;;4904934;29;20253;-89
2020/12/04 02:26:23;;;;;;;16.38;9.07;;;17.10;53.60;;;;;;4923005;29;20611;-90
2020/12/04 02:29:20;;;;;;;16.27;8.98;;;17.10;53.50;;;;;;4922147;29;20215;-88
2020/12/04 02:32:05;;;;;;;16.52;9.30;;;17.10;53.50;;;;;;4907426;29;20182;-89
2020/12/04 02:34:59;;;;;;;15.13;8.82;;;17.10;53.50;;;;;;4892394;29;20178;-90
2020/12/04 02:37:32;;;;;;;15.45;8.60;;;17.10;53.60;;;;;;4922755;29;20179;-89
2020/12/04 02:40:25;;;;;;;13.00;8.73;;;17.10;53.60;;;;;;4994619;28;20183;-89
2020/12/04 02:43:23;;;;;;;16.10;8.85;;;17.10;53.80;;;;;;4999775;28;20190;-90
2020/12/04 02:46:12;;;;;;;13.32;8.63;;;17.10;53.80;;;;;;5047726;28;20215;-90
2020/12/04 02:49:02;;;;;;;14.73;9.23;;;17.10;53.40;;;;;;5084795;28;20779;-89
2020/12/04 02:51:50;;;;;;;12.88;8.65;;;17.10;53.60;;;;;;5074356;28;20717;-89
2020/12/04 02:54:47;;;;;;;;;;;;;;;;;;;;;
2020/12/04 02:57:35;;;;;;;14.40;9.48;;;17.10;53.60;;;;;;5067895;28;20217;-89
2020/12/04 03:00:48;;;;;;;16.20;8.77;;;17.10;53.90;;;;;;5080661;28;20157;-89
2020/12/04 03:03:56;;;;;;;15.80;8.85;;;17.10;53.50;;;;;;5079923;28;20169;-90
2020/12/04 03:10:26;;;;;;;12.68;8.13;;;17.10;53.60;;;;;;5019062;28;20190;-89
2020/12/04 03:13:41;;;;;;;16.20;8.95;;;17.10;54.10;;;;;;5006603;28;20186;-89
2020/12/04 03:16:25;;;;;;;15.00;8.45;;;17.00;54.00;;;;;;5002614;28;20633;-89
2020/12/04 03:19:37;;;;;;;16.42;8.73;;;17.10;53.70;;;;;;4988293;28;20187;-89
2020/12/04 03:22:03;;;;;;;16.33;8.23;;;17.10;53.60;;;;;;5001050;28;20194;-90
2020/12/04 03:24:55;;;;;;;14.88;8.93;;;17.10;53.60;;;;;;4987348;28;20669;-89
2020/12/04 03:27:53;;;;;;;14.95;9.13;;;17.10;53.80;;;;;;4988047;28;20191;-89
2020/12/04 03:30:35;;;;;;;14.90;8.68;;;17.10;53.80;;;;;;5004305;28;20194;-89
2020/12/04 03:37:21;;;;;;;13.98;8.23;;;17.10;53.70;;;;;;5019058;28;20547;-91
2020/12/04 03:43:01;;;;;;;;;;;;;;;;;;;;;
2020/12/04 03:45:56;;;;;;;13.00;8.55;;;17.10;53.80;;;;;;5004715;28;20258;-90
2020/12/04 03:49:03;;;;;;;14.65;8.80;;;17.20;53.60;;;;;;5046260;28;20264;-90
2020/12/04 03:51:54;;;;;;;13.90;8.40;;;17.10;53.90;;;;;;4976676;28;20298;-90
2020/12/04 03:54:55;;;;;;;14.98;9.43;;;17.00;53.80;;;;;;4969739;28;20188;-89
2020/12/04 03:58:03;;;;;;;;;;;;;;;;;;;;;
2020/12/04 04:08:32;;;;;;;;;;;;;;;;;;;;;
2020/12/04 04:11:25;;;;;;;13.93;8.27;;;17.10;54.40;;;;;;4865650;29;20256;-90
2020/12/04 04:14:25;;;;;;;13.13;8.25;;;17.00;53.80;;;;;;4853803;29;20185;-89
2020/12/04 04:17:27;;;;;;;;;;;;;;;;;;;;;
2020/12/04 04:20:31;;;;;;;13.48;8.38;;;17.10;53.90;;;;;;4853483;29;20156;-89
2020/12/04 04:23:55;;;;;;;13.63;8.80;;;17.10;53.90;;;;;;4865519;29;20241;-90
2020/12/04 04:26:48;;;;;;;12.68;8.43;;;17.00;54.10;;;;;;4865266;29;20192;-90
2020/12/04 04:30:04;;;;;;;14.20;8.68;;;17.00;54.10;;;;;;4932667;29;20225;-89
2020/12/04 04:33:16;;;;;;;12.55;8.15;;;17.00;53.90;;;;;;4929436;29;20257;-90
2020/12/04 04:36:26;;;;;;;12.50;8.10;;;17.00;53.70;;;;;;4902228;29;20267;-89
2020/12/04 04:39:16;;;;;;;11.35;8.00;;;17.10;53.90;;;;;;4905708;29;20183;-88
2020/12/04 04:42:22;;;;;;;13.02;8.52;;;17.00;53.90;;;;;;4937156;29;20190;-89
2020/12/04 04:44:59;;;;;;;11.48;8.07;;;17.00;54.00;;;;;;4906371;29;20680;-89
2020/12/04 04:47:36;;;;;;;15.20;8.93;;;17.10;54.00;;;;;;4921644;29;20185;-89
2020/12/04 04:50:04;;;;;;;13.80;8.57;;;17.10;53.80;;;;;;4945195;28;20601;-89
2020/12/04 04:52:38;;;;;;;12.30;7.97;;;17.00;53.50;;;;;;4948603;28;20220;-89
2020/12/04 04:55:13;;;;;;;12.23;7.38;;;17.10;53.10;;;;;;4965284;28;20232;-89
2020/12/04 04:57:40;;;;;;;11.32;7.70;;;17.20;52.90;;;;;;4965638;28;20169;-90
2020/12/04 05:00:29;;;;;;;11.48;7.65;;;17.30;52.50;;;;;;4964881;28;20212;-89
2020/12/04 05:03:06;;;;;;;11.73;7.70;;;17.30;52.40;;;;;;4966634;28;20271;-89
2020/12/04 05:05:50;;;;;;;10.90;6.68;;;17.40;52.10;;;;;;4965806;28;20211;-89
2020/12/04 05:08:39;;;;;;;11.63;7.32;;;17.40;52.10;;;;;;4965806;28;20185;-90
2020/12/04 05:11:29;;;;;;;10.77;7.28;;;17.40;52.10;;;;;;4973550;28;20190;-90
2020/12/04 05:14:25;;;;;;;9.75;6.80;;;17.40;52.10;;;;;;5007830;28;20229;-90
2020/12/04 05:17:14;;;;;;;13.40;7.97;;;17.40;52.10;;;;;;4964820;28;20284;-91
2020/12/04 05:20:01;;;;;;;;;;;;;;;;;;;;;
2020/12/04 05:22:39;;;;;;;11.68;6.95;;;17.40;52.10;;;;;;4937231;28;20722;-89
2020/12/04 05:25:19;;;;;;;9.82;6.38;;;17.30;51.90;;;;;;4968559;28;20203;-88
2020/12/04 05:27:48;;;;;;;11.70;6.95;;;17.40;52.10;;;;;;4965205;28;20176;-89
2020/12/04 05:30:55;;;;;;;11.52;7.25;;;17.30;52.00;;;;;;4966299;28;20220;-90
2020/12/04 05:33:40;;;;;;;10.70;7.07;;;17.30;52.30;;;;;;4985506;28;20160;-89
2020/12/04 05:36:12;;;;;;;10.60;6.82;;;17.30;52.20;;;;;;4966868;28;20195;-88
2020/12/04 05:39:02;;;;;;;10.20;6.90;;;17.30;51.90;;;;;;4982599;28;20237;-89
2020/12/04 05:41:57;;;;;;;10.23;6.88;;;17.40;51.70;;;;;;4968300;28;20183;-89
2020/12/04 05:44:58;;;;;;;10.30;7.05;;;17.40;52.00;;;;;;4946820;29;20201;-88
2020/12/04 05:47:46;;;;;;;9.30;6.30;;;17.30;52.00;;;;;;4960294;29;20197;-90
2020/12/04 05:50:43;;;;;;;10.23;7.40;;;17.30;52.20;;;;;;4926143;29;20687;-88
2020/12/04 05:53:24;;;;;;;10.82;6.93;;;17.30;52.30;;;;;;4885445;29;20751;-88
2020/12/04 05:55:56;;;;;;;9.75;6.75;;;17.30;51.80;;;;;;4902005;29;20227;-88
2020/12/04 05:58:25;;;;;;;11.48;6.75;;;17.30;51.90;;;;;;4869483;29;20187;-88
2020/12/04 06:01:00;;;;;;;10.95;6.53;;;17.40;51.70;;;;;;4885495;29;20647;-89
2020/12/04 06:03:33;;;;;;;10.68;6.93;;;17.40;51.70;;;;;;4901272;29;20183;-88
2020/12/04 06:06:10;;;;;;;8.88;6.50;;;17.40;51.90;;;;;;4884905;29;20211;-89
2020/12/04 06:09:09;;;;;;;10.70;7.03;;;17.30;51.90;;;;;;4899968;29;20187;-89
2020/12/04 06:12:04;;;;;;;9.90;6.60;;;17.30;52.00;;;;;;4885017;29;20587;-89
2020/12/04 06:14:56;;;;;;;11.27;6.75;;;17.40;52.10;;;;;;4928526;28;20192;-88
2020/12/04 06:17:52;;;;;;;10.07;6.68;;;17.30;52.00;;;;;;4962234;28;20207;-88
2020/12/04 06:20:41;;;;;;;9.38;6.05;;;17.30;52.00;;;;;;4963258;28;20203;-88
2020/12/04 06:23:16;;;;;;;9.38;6.35;;;17.30;51.90;;;;;;4961062;28;20188;-88
2020/12/04 06:26:29;;;;;;;9.45;5.90;;;17.40;51.70;;;;;;4947204;28;20200;-89
2020/12/04 06:29:31;;;;;;;9.70;6.05;;;17.40;51.70;;;;;;5003552;28;20177;-89
2020/12/04 06:32:35;;;;;;;9.75;6.55;;;17.40;51.40;;;;;;5048957;28;20169;-88
2020/12/04 06:35:47;;;;;;;7.93;5.65;;;17.50;51.70;;;;;;5080250;28;20215;-89
2020/12/04 06:38:38;;;;;;;11.05;6.55;;;17.40;51.70;;;;;;5041589;28;20170;-88
2020/12/04 06:41:27;;;;;;;9.02;6.20;;;17.40;51.90;;;;;;5040179;28;20660;-88
2020/12/04 06:44:03;;;;;;;9.20;6.13;;;17.40;51.50;;;;;;5040539;28;20166;-88
2020/12/04 06:46:40;;;;;;;9.07;6.35;;;17.40;51.90;;;;;;5023357;28;20225;-88
2020/12/04 06:49:36;;;;;;;10.70;6.00;;;17.30;51.70;;;;;;5040147;28;20150;-88
2020/12/04 06:52:37;;;;;;;8.70;6.03;;;17.40;51.70;;;;;;5041384;28;20229;-88
2020/12/04 06:55:17;;;;;;;8.23;5.75;;;17.30;51.70;;;;;;5025475;28;20247;-89
2020/12/04 06:58:00;;;;;;;9.35;6.18;;;17.40;51.60;;;;;;5041623;28;20158;-88
2020/12/04 07:00:56;;;;;;;9.32;6.28;;;17.30;51.70;;;;;;5022952;28;20181;-88
2020/12/04 07:03:34;;;;;;;9.35;6.13;;;17.40;51.60;;;;;;5044320;28;20206;-89
2020/12/04 07:06:25;;;;;;;9.43;6.40;;;17.40;51.40;;;;;;5023523;28;20198;-88
2020/12/04 07:09:07;;;;;;;9.25;6.00;;;17.40;51.70;;;;;;5024879;28;20256;-88
2020/12/04 07:12:15;;;;;;;;;;;;;;;;;;;;;
2020/12/04 07:15:14;;;;;;;9.70;6.15;;;17.40;52.10;;;;;;5058145;28;20253;-88
2020/12/04 07:17:47;;;;;;;9.18;5.90;;;17.40;52.10;;;;;;5023263;28;20231;-87
2020/12/04 07:20:42;;;;;;;;;;;;;;;;;;;;;
2020/12/04 07:23:39;;;;;;;9.77;6.10;;;17.40;52.10;;;;;;5041032;28;20273;-87
2020/12/04 07:26:51;;;;;;;8.88;6.10;;;17.40;51.80;;;;;;5037404;28;20606;-88
2020/12/04 07:43:52;;;;;;;8.65;5.65;;;17.40;51.60;;;;;;4860732;29;20188;-88
2020/12/04 07:46:20;;;;;;;8.05;5.20;;;17.40;51.70;;;;;;4856972;29;20220;-86
2020/12/04 07:49:16;;;;;;;7.38;5.38;;;17.40;51.70;;;;;;4860343;29;20229;-86
2020/12/04 07:51:49;;;;;;;8.02;6.00;;;17.40;51.70;;;;;;4844686;29;20743;-87
2020/12/04 07:54:26;;;;;;;7.63;5.35;;;17.40;51.80;;;;;;4829257;29;20272;-87
2020/12/04 07:57:12;;;;;;;7.80;5.50;;;17.40;51.70;;;;;;4844372;29;20279;-87
2020/12/04 07:59:40;;;;;;;8.60;5.97;;;17.40;51.70;;;;;;4873635;29;20196;-87
2020/12/04 08:02:08;;;;;;;8.13;5.57;;;17.40;51.50;;;;;;4859281;29;20208;-86
2020/12/04 08:04:42;;;;;;;8.13;6.03;;;17.40;51.70;;;;;;4859650;29;20248;-87
2020/12/04 08:07:13;;;;;;;8.43;5.43;;;17.40;51.70;;;;;;4892163;29;20213;-87
2020/12/04 08:09:49;;;;;;;8.13;5.85;;;17.40;51.50;;;;;;4934657;29;20166;-87
2020/12/04 08:12:23;;;;;;;7.80;5.72;;;17.40;51.50;;;;;;4937259;28;20342;-87
2020/12/04 08:14:54;;;;;;;8.23;5.80;;;17.40;51.40;;;;;;4959695;28;20187;-86
2020/12/04 08:17:43;;;;;;;8.20;5.70;;;17.40;51.40;;;;;;4976165;28;20280;-86
2020/12/04 08:20:23;;;;;;;8.10;5.53;;;17.40;51.40;;;;;;4957997;28;20168;-86
2020/12/04 08:22:50;;;;;;;8.18;5.50;;;17.40;51.50;;;;;;5018811;28;20564;-87
2020/12/04 08:25:29;;;;;;;9.77;6.10;;;17.50;51.60;;;;;;5019304;28;20564;-86
2020/12/04 08:28:05;;;;;;;8.68;5.70;;;17.40;51.60;;;;;;5019595;28;20161;-86
2020/12/04 08:30:31;;;;;;;7.70;5.75;;;17.30;51.70;;;;;;5036008;28;20158;-86
2020/12/04 08:33:03;;;;;;;7.88;5.60;;;17.40;51.40;;;;;;5036484;28;20517;-86
2020/12/04 08:35:39;;;;;;;7.95;5.47;;;17.40;51.60;;;;;;5020861;28;20582;-88
2020/12/04 08:38:23;;;;;;;7.72;5.57;;;17.40;51.50;;;;;;5037366;28;20628;-87
2020/12/04 08:40:52;;;;;;;6.75;5.10;;;17.50;51.30;;;;;;5020818;28;20189;-87
2020/12/04 08:43:27;;;;;;;8.07;5.43;;;17.50;51.30;;;;;;5020553;28;20174;-87
2020/12/04 08:45:56;;;;;;;8.27;5.78;;;17.50;51.20;;;;;;5020900;28;20525;-87
2020/12/04 08:48:43;;;;;;;7.97;5.60;;;17.50;51.20;;;;;;5021196;28;20161;-87
2020/12/04 08:51:08;;;;;;;7.93;5.32;;;17.50;51.30;;;;;;5043789;28;20212;-88
2020/12/04 08:53:37;;;;;;;8.80;6.10;;;17.60;51.20;;;;;;5060276;28;20200;-87
2020/12/04 08:56:05;;;;;;;8.15;5.32;;;17.50;51.40;;;;;;5047385;28;20248;-87
2020/12/04 08:58:31;;;;;;;8.05;5.70;;;17.50;51.30;;;;;;5042986;28;20209;-88
2020/12/04 09:01:00;;;;;;;8.73;5.72;;;17.50;51.20;;;;;;5043927;28;20192;-87
2020/12/04 09:03:28;;;;;;;8.95;6.20;;;17.50;51.50;;;;;;5043502;28;20172;-87
2020/12/04 09:05:55;;;;;;;9.30;5.57;;;17.50;51.60;;;;;;5043345;28;20200;-87
2020/12/04 09:08:30;;;;;;;9.82;6.20;;;17.40;51.50;;;;;;5042853;28;20186;-87
2020/12/04 09:11:01;;;;;;;8.05;5.72;;;17.40;51.60;;;;;;5043736;28;20186;-88
2020/12/04 09:13:36;;;;;;;7.93;5.72;;;17.50;51.90;;;;;;5044920;28;20169;-87
2020/12/04 09:16:09;;;;;;;9.32;6.32;;;17.50;51.40;;;;;;5043894;28;20255;-88
2020/12/04 09:19:18;;;;;;;;;;;;;;;;;;;;;
2020/12/04 09:22:51;;;;;;;8.88;5.85;;;17.40;51.60;;;;;;5067305;28;20200;-88
2020/12/04 09:35:54;;;;;;;8.75;5.45;;;17.50;51.60;;;;;;5016290;28;20578;-87
2020/12/04 09:42:21;;;;;;;7.60;5.35;;;17.50;51.50;;;;;;5011877;28;20187;-89
2020/12/04 09:44:50;;;;;;;9.23;5.75;;;17.50;51.40;;;;;;4975522;28;20187;-88
2020/12/04 09:58:14;;;;;;;;;;;;;;;;;;;;;
2020/12/04 10:01:40;;;;;;;;;;;;;;;;;;;;;
2020/12/04 10:10:50;;;;;;;7.25;5.07;;;17.50;51.40;;;;;;4949380;29;20193;-88
2020/12/04 10:13:52;;;;;;;7.82;5.38;;;17.50;51.60;;;;;;4947561;29;20210;-88
2020/12/04 10:24:10;;;;;;;7.45;4.88;;;17.60;51.40;;;;;;4951995;29;20161;-89
2020/12/04 10:27:10;;;;;;;6.55;4.65;;;17.50;51.40;;;;;;4935769;28;20221;-88
2020/12/04 10:29:44;;;;;;;6.28;4.57;;;17.50;51.60;;;;;;4988486;28;20219;-89
2020/12/04 10:32:15;;;;;;;8.50;5.32;;;17.50;51.60;;;;;;4986266;28;20204;-88
2020/12/04 10:35:04;;;;;;;6.30;5.10;;;17.40;51.80;;;;;;4972089;28;20678;-88
2020/12/04 10:38:11;;;;;;;7.00;4.90;;;17.50;51.60;;;;;;4978999;28;20181;-88
2020/12/04 10:41:26;;;;;;;7.65;5.10;;;17.40;51.70;;;;;;4979961;28;20172;-89
2020/12/04 10:44:49;;;;;;;6.97;5.05;;;17.50;51.70;;;;;;4981077;28;20244;-88
2020/12/04 10:47:55;;;;;;;8.30;4.82;;;17.50;51.60;;;;;;4992748;28;20194;-87
2020/12/04 10:51:02;;;;;;;6.53;4.82;;;17.50;51.60;;;;;;5014204;28;20243;-89
2020/12/04 10:53:41;;;;;;;8.57;5.07;;;17.50;51.50;;;;;;5030042;28;20222;-86
2020/12/04 11:06:45;;;;;;;7.25;4.75;;;17.60;51.30;;;;;;4991258;28;20280;-88
2020/12/04 11:10:10;;;;;;;;;;;;;;;;;;;;;
2020/12/04 11:16:31;;;;;;;;;;;;;;;;;;;;;
2020/12/04 11:19:23;;;;;;;;;;;;;;;;;;;;;
2020/12/04 11:22:34;;;;;;;;;;;;;;;;;;;;;
2020/12/04 11:25:02;;;;;;;7.22;4.80;;;17.60;51.50;;;;;;4916957;29;20206;-88
2020/12/04 11:27:32;;;;;;;6.43;4.82;;;17.60;51.50;;;;;;4932803;28;20203;-88
2020/12/04 11:30:05;;;;;;;6.65;4.90;;;17.60;51.60;;;;;;4935491;28;20201;-88
2020/12/04 11:32:38;;;;;;;6.57;4.95;;;17.50;51.50;;;;;;4954287;28;20184;-87
2020/12/04 11:35:11;;;;;;;8.93;5.45;;;17.60;51.50;;;;;;4939048;28;20243;-88
2020/12/04 11:37:49;;;;;;;5.05;4.40;;;17.60;51.60;;;;;;4952548;28;20177;-89
2020/12/04 11:40:24;;;;;;;6.53;4.50;;;17.60;51.50;;;;;;4967856;28;20169;-88
2020/12/04 11:43:09;;;;;;;7.43;5.18;;;17.60;51.50;;;;;;4973020;28;20177;-87
2020/12/04 11:45:42;;;;;;;5.90;4.43;;;17.50;51.70;;;;;;5054929;28;20197;-88
2020/12/04 11:48:13;;;;;;;6.50;4.75;;;17.60;51.40;;;;;;5051888;28;20157;-86
2020/12/04 11:54:18;;;;;;;7.35;4.70;;;17.70;51.30;;;;;;5082601;28;20248;-87
2020/12/04 11:57:09;;;;;;;7.82;4.70;;;17.70;51.20;;;;;;5003096;28;20193;-87
2020/12/04 11:59:46;;;;;;;8.15;4.75;;;17.60;51.40;;;;;;5048353;28;20182;-86
2020/12/04 12:02:16;;;;;;;6.03;4.50;;;17.60;51.40;;;;;;5020817;28;20185;-89
2020/12/04 12:04:59;;;;;;;6.07;4.35;;;17.60;51.20;;;;;;5019829;28;20181;-88
2020/12/04 12:07:50;;;;;;;6.10;4.00;;;17.60;51.30;;;;;;5020625;28;20178;-89
2020/12/04 12:10:28;;;;;;;5.30;4.10;;;17.60;51.20;;;;;;5020614;28;20248;-88
2020/12/04 12:13:06;;;;;;;6.35;4.40;;;17.60;51.10;;;;;;5020660;28;20181;-88
2020/12/04 12:15:56;;;;;;;6.35;4.57;;;17.80;50.90;;;;;;5036086;28;20286;-88
2020/12/04 12:18:36;;;;;;;6.28;4.30;;;17.60;51.20;;;;;;5022663;28;20269;-88
2020/12/04 12:21:12;;;;;;;5.80;4.30;;;17.70;51.20;;;;;;5020542;28;20177;-88
2020/12/04 12:24:17;;;;;;;5.75;4.20;;;17.60;51.20;;;;;;5035879;28;20256;-87
2020/12/04 12:26:55;;;;;;;5.95;4.30;;;17.70;51.10;;;;;;5019636;28;20316;-88
2020/12/04 12:29:57;;;;;;;6.32;4.53;;;17.70;50.90;;;;;;5022575;28;20621;-89
2020/12/04 12:32:30;;;;;;;6.35;4.50;;;17.70;51.00;;;;;;4943756;28;20176;-88
2020/12/04 12:38:53;;;;;;;;;;;;;;;;;;;;;
2020/12/04 12:42:21;;;;;;;;;;;;;;;;;;;;;
2020/12/04 12:44:51;;;;;;;5.97;4.28;;;17.60;51.20;;;;;;4973929;28;20172;-88
2020/12/04 12:47:19;;;;;;;6.38;4.40;;;17.60;51.20;;;;;;4957004;28;20619;-89
2020/12/04 12:49:51;;;;;;;6.05;4.30;;;17.60;51.20;;;;;;4958182;28;20188;-89
2020/12/04 12:52:25;;;;;;;5.90;4.20;;;17.60;51.50;;;;;;4943741;28;20247;-89
2020/12/04 12:54:58;;;;;;;5.22;4.10;;;17.60;51.20;;;;;;4959534;28;20220;-89
2020/12/04 12:57:59;;;;;;;4.70;3.85;;;17.60;51.20;;;;;;4966742;28;20188;-89
2020/12/04 13:00:37;;;;;;;5.07;4.05;;;17.70;51.20;;;;;;4985740;28;20757;-89
2020/12/04 13:14:08;;;;;;;;;;;;;;;;;;;;;
2020/12/04 13:16:50;;;;;;;5.13;3.90;;;17.50;51.20;;;;;;4914424;29;20268;-89
2020/12/04 13:20:03;;;;;;;;;;;;;;;;;;;;;
2020/12/04 13:23:27;;;;;;;;;;;;;;;;;;;;;
2020/12/04 13:25:54;;;;;;;5.85;3.90;;;17.60;51.30;;;;;;4871138;29;20208;-88
2020/12/04 13:29:02;;;;;;;5.35;4.15;;;17.70;50.90;;;;;;4889620;29;20212;-88
2020/12/04 13:31:36;;;;;;;5.35;3.92;;;17.60;51.10;;;;;;4888621;29;20176;-88
2020/12/04 13:37:57;;;;;;;6.03;4.20;;;17.60;51.40;;;;;;4828207;29;20182;-89
2020/12/04 13:40:46;;;;;;;5.35;3.92;;;17.50;51.50;;;;;;4815371;29;20232;-88
2020/12/04 13:44:14;;;;;;;6.25;3.90;;;17.50;51.30;;;;;;4812583;29;20190;-89
2020/12/04 13:47:10;;;;;;;4.38;3.45;;;17.50;51.60;;;;;;4818707;29;20218;-88
2020/12/04 13:49:43;;;;;;;6.47;4.10;;;17.60;51.20;;;;;;4845257;29;20196;-88
2020/12/04 13:52:11;;;;;;;5.15;3.53;;;17.60;51.30;;;;;;4857808;29;20272;-88
2020/12/04 13:54:37;;;;;;;5.07;3.67;;;17.60;51.40;;;;;;4925001;29;20300;-87
2020/12/04 13:57:12;;;;;;;5.47;3.95;;;17.60;51.10;;;;;;4935027;29;20551;-89
2020/12/04 13:59:52;;;;;;;5.10;3.80;;;17.70;51.00;;;;;;4951485;28;20184;-88
2020/12/04 15:15:14;;;;;;;4.95;3.58;;;17.90;51.20;;;;;;4988807;28;20194;-89
2020/12/04 15:17:41;;;;;;;4.60;3.35;;;17.80;51.20;;;;;;4957912;28;20182;-88
2020/12/04 15:20:07;;;;;;;6.15;3.20;;;17.80;51.20;;;;;;4973610;28;20164;-88
2020/12/04 15:23:13;;;;;;;4.72;3.58;;;17.90;51.20;;;;;;4989293;28;20289;-88
2020/12/04 15:26:01;;;;;;;5.38;3.70;;;17.90;51.20;;;;;;4998915;28;20208;-88
2020/12/04 15:28:58;;;;;;;4.93;3.70;;;17.80;51.20;;;;;;4976540;28;20171;-88
2020/12/04 15:31:52;;;;;;;6.20;3.40;;;17.80;51.30;;;;;;4983196;28;20176;-87
2020/12/04 15:34:37;;;;;;;6.90;3.83;;;17.70;51.60;;;;;;4944799;28;20184;-89
2020/12/04 15:37:16;;;;;;;5.28;3.47;;;17.80;51.60;;;;;;4968955;28;20306;-89
2020/12/04 15:43:43;;;;;;;5.20;3.40;;;17.80;51.60;;;;;;4878684;29;20201;-88
2020/12/04 15:46:47;;;;;;;4.88;3.13;;;17.90;52.10;;;;;;4894880;29;20717;-88
2020/12/04 15:49:31;;;;;;;6.22;3.10;;;17.90;51.00;;;;;;4910113;28;20172;-88
2020/12/04 15:52:21;;;;;;;5.25;3.50;;;18.00;51.00;;;;;;4956129;28;20165;-90
2020/12/04 15:59:30;;;;;;;4.40;2.90;;;17.80;51.30;;;;;;4989509;28;20185;-89
2020/12/04 16:02:46;;;;;;;4.70;3.28;;;17.90;51.40;;;;;;4973085;28;20187;-89
2020/12/04 16:05:28;;;;;;;5.05;3.10;;;17.90;51.30;;;;;;4955195;28;20188;-88
2020/12/04 16:08:24;;;;;;;5.85;3.42;;;17.90;51.20;;;;;;4966886;28;20251;-88
2020/12/04 16:10:55;;;;;;;4.18;3.20;;;18.00;51.10;;;;;;4949478;28;20224;-88
2020/12/04 16:13:23;;;;;;;5.60;3.15;;;18.00;51.20;;;;;;4935585;28;20185;-88
2020/12/04 16:16:38;;;;;;;;;;;;;;;;;;;;;
2020/12/04 16:20:17;;;;;;;4.78;3.45;;;18.00;51.00;;;;;;4906531;29;20440;-88
2020/12/04 16:33:29;;;;;;;4.68;3.17;;;18.00;51.00;;;;;;4869091;29;20184;-89
2020/12/04 16:40:03;;;;;;;;;;;;;;;;;;;;;
2020/12/04 16:43:33;;;;;;;6.88;3.40;;;18.00;50.90;;;;;;4844347;29;20275;-90
2020/12/04 16:45:59;;;;;;;5.30;3.08;;;18.00;51.40;;;;;;4792955;30;20226;-86
2020/12/04 16:48:31;;;;;;;5.22;2.95;;;18.00;51.10;;;;;;4780356;30;20195;-89
2020/12/04 16:55:14;;;;;;;9.60;3.80;;;18.00;51.20;;;;;;4664725;30;20198;-87
2020/12/04 16:58:05;;;;;;;7.97;3.28;;;17.90;51.40;;;;;;4714031;30;20190;-88
2020/12/04 17:00:44;;;;;;;;;;;;;;;;;;;;;
2020/12/04 17:03:13;;;;;;;7.07;3.17;;;18.00;51.40;;;;;;4750609;30;20265;-88
2020/12/04 17:05:48;;;;;;;9.30;3.70;;;18.00;51.40;;;;;;4738644;30;20231;-87
2020/12/04 17:08:14;;;;;;;7.85;3.22;;;18.00;51.40;;;;;;4739707;30;20268;-86
2020/12/04 17:10:40;;;;;;;6.95;3.22;;;18.00;51.30;;;;;;4738753;30;20201;-87
2020/12/04 17:13:13;;;;;;;17.00;3.78;;;18.00;51.30;;;;;;4753104;30;20262;-87
2020/12/04 17:15:45;;;;;;;12.52;3.78;;;18.00;51.70;;;;;;4737576;30;20201;-86
2020/12/04 17:18:15;;;;;;;7.22;3.30;;;18.00;51.60;;;;;;4742372;30;20201;-87
2020/12/04 17:20:43;;;;;;;9.13;3.60;;;18.00;51.80;;;;;;4807922;29;20178;-87
2020/12/04 17:23:08;;;;;;;11.38;3.40;;;18.00;51.60;;;;;;4863831;29;20216;-87
2020/12/04 17:25:36;;;;;;;5.18;3.22;;;18.00;51.70;;;;;;5025790;28;20221;-86
2020/12/04 17:28:02;;;;;;;7.40;3.47;;;18.10;51.10;;;;;;5043462;28;20154;-89
2020/12/04 17:30:29;;;;;;;10.23;3.53;;;18.10;51.20;;;;;;5030085;28;20176;-88
2020/12/04 17:32:58;;;;;;;11.05;3.67;;;18.10;51.60;;;;;;5031127;28;20691;-88
2020/12/04 17:35:30;;;;;;;4.72;3.53;;;18.10;51.50;;;;;;5033179;28;20231;-88
2020/12/04 17:38:00;;;;;;;6.82;3.13;;;18.10;51.30;;;;;;5035852;28;20195;-87
2020/12/04 17:40:26;;;;;;;7.38;3.20;;;18.20;51.30;;;;;;5035775;28;20170;-88
2020/12/04 17:42:56;;;;;;;12.48;4.00;;;18.20;51.30;;;;;;5049871;28;20517;-88
2020/12/04 17:45:22;;;;;;;17.83;3.78;;;18.20;51.60;;;;;;5065180;28;20149;-88
2020/12/04 17:47:53;;;;;;;7.38;3.83;;;18.10;51.40;;;;;;5031086;28;20627;-88
2020/12/04 17:50:18;;;;;;;8.63;3.20;;;18.10;51.70;;;;;;5064490;28;20207;-88
2020/12/04 17:52:47;;;;;;;8.23;3.45;;;18.10;51.50;;;;;;5029347;28;20173;-87
2020/12/04 17:55:14;;;;;;;11.88;3.97;;;18.10;51.50;;;;;;5045003;28;20165;-89
2020/12/04 17:57:46;;;;;;;5.32;3.53;;;18.20;51.50;;;;;;5046501;28;20150;-88
2020/12/04 18:00:13;;;;;;;10.68;3.45;;;18.20;51.40;;;;;;5045927;28;20620;-88
2020/12/04 18:02:54;;;;;;;13.40;3.65;;;18.20;51.50;;;;;;5043878;28;20224;-88
2020/12/04 18:05:23;;;;;;;7.05;3.35;;;18.20;51.90;;;;;;5053583;28;20185;-88
2020/12/04 18:07:50;;;;;;;8.82;3.30;;;18.10;51.80;;;;;;5044919;28;20165;-88
2020/12/04 18:10:17;;;;;;;9.88;3.42;;;18.10;52.10;;;;;;5043223;28;20569;-87
2020/12/04 18:12:44;;;;;;;6.53;3.65;;;18.10;51.80;;;;;;5043959;28;20227;-88
2020/12/04 18:15:10;;;;;;;5.45;3.03;;;18.10;51.70;;;;;;5061143;28;20196;-87
2020/12/04 18:17:38;;;;;;;7.82;3.33;;;18.20;51.50;;;;;;5044096;28;20548;-89
2020/12/04 18:20:14;;;;;;;13.98;3.58;;;18.20;51.70;;;;;;5044339;28;20165;-88
2020/12/04 18:22:49;;;;;;;10.30;3.47;;;18.20;52.00;;;;;;5045514;28;20189;-88
2020/12/04 18:25:22;;;;;;;9.68;3.70;;;18.20;51.90;;;;;;5062995;28;20658;-89
2020/12/04 18:27:53;;;;;;;6.05;3.20;;;18.20;52.20;;;;;;5045963;28;20161;-89
2020/12/04 18:30:35;;;;;;;8.02;3.67;;;18.10;52.10;;;;;;5060990;28;20688;-88
2020/12/04 18:33:07;;;;;;;9.48;3.67;;;18.20;51.80;;;;;;5046830;28;20624;-89
2020/12/04 18:39:18;;;;;;;13.70;3.97;;;18.10;51.70;;;;;;5039549;28;20254;-88
2020/12/04 18:42:00;;;;;;;5.07;3.40;;;18.20;52.10;;;;;;5018100;28;20175;-88
2020/12/04 18:44:27;;;;;;;13.43;4.00;;;18.10;51.60;;;;;;5018483;28;20290;-88